createdAt,value
2017-10-23T15:44:43.456Z,58.70
2017-10-23T15:46:21.029Z,59.40
2017-10-23T15:47:57.507Z,60.90
2017-10-23T15:49:33.963Z,59.80
2017-10-23T15:51:10.789Z,59.50
2017-10-23T15:52:47.247Z,59.70
2017-10-23T15:54:25.280Z,59.30
2017-10-23T15:57:52.819Z,58.90
2017-10-23T15:59:31.191Z,58.30
2017-10-23T16:01:07.857Z,58.30
2017-10-23T16:02:44.475Z,58.20
2017-10-23T16:04:21.124Z,58.10
2017-10-23T16:05:57.908Z,58.30
2017-10-23T16:07:34.358Z,59.10
2017-10-23T16:09:11.558Z,60.00
2017-10-23T16:10:48.128Z,60.50
2017-10-23T16:12:24.614Z,61.80
2017-10-23T16:14:01.186Z,60.10
2017-10-23T16:15:38.182Z,60.10
2017-10-23T16:17:16.131Z,59.30
2017-10-23T16:18:52.653Z,59.30
2017-10-23T16:20:29.153Z,60.20
2017-10-23T16:22:05.826Z,60.90
2017-10-23T16:23:43.819Z,59.60
2017-10-23T16:25:20.236Z,59.60
2017-10-23T16:26:56.752Z,59.60
2017-10-23T16:28:34.150Z,58.70
2017-10-23T16:30:10.810Z,59.20
2017-10-23T16:31:47.852Z,59.60
2017-10-23T16:33:24.768Z,59.60
2017-10-23T16:35:02.220Z,61.30
2017-10-23T16:36:38.712Z,61.30
2017-10-23T16:38:15.941Z,60.50
2017-10-23T16:39:52.508Z,60.50
2017-10-23T16:41:29.550Z,59.80
2017-10-23T16:43:06.524Z,59.40
2017-10-23T16:44:43.083Z,60.00
2017-10-23T16:46:19.778Z,60.90
2017-10-23T16:47:56.745Z,60.70
2017-10-23T16:49:33.618Z,59.70
2017-10-23T16:51:10.339Z,59.40
2017-10-23T16:52:47.172Z,60.30
2017-10-23T16:54:24.066Z,60.10
2017-10-23T16:56:00.484Z,59.80
2017-10-23T16:57:37.699Z,60.00
2017-10-23T16:59:14.222Z,60.50
2017-10-23T17:00:51.167Z,60.20
2017-10-23T17:02:27.839Z,60.00
2017-10-23T17:04:04.496Z,60.00
2017-10-23T17:05:41.253Z,60.10
2017-10-23T17:07:18.632Z,59.80
2017-10-23T17:08:56.319Z,59.30
2017-10-23T17:10:33.628Z,59.30
2017-10-23T17:12:16.166Z,59.30
2017-10-23T17:13:53.829Z,60.50
2017-10-23T17:15:31.300Z,60.50
2017-10-23T17:17:09.502Z,60.20
2017-10-23T17:18:46.494Z,60.50
2017-10-23T17:20:24.014Z,61.00
2017-10-23T17:22:01.061Z,62.50
2017-10-23T17:23:39.907Z,64.70
2017-10-23T17:25:18.931Z,65.10
2017-10-23T17:26:57.720Z,64.40
2017-10-23T17:28:36.254Z,65.60
2017-10-23T17:30:15.102Z,66.50
2017-10-23T17:31:54.159Z,65.40
2017-10-23T17:33:32.071Z,65.40
2017-10-23T17:35:09.772Z,65.20
2017-10-23T17:36:47.298Z,65.30
2017-10-23T17:38:24.065Z,64.90
2017-10-23T17:40:02.456Z,67.70
2017-10-23T17:41:42.249Z,67.70
2017-10-23T17:43:19.434Z,68.50
2017-10-23T17:44:57.259Z,69.10
2017-10-23T17:46:38.171Z,69.20
2017-10-23T17:48:16.310Z,69.70
2017-10-23T17:49:54.419Z,68.70
2017-10-23T17:51:33.448Z,68.70
2017-10-23T17:53:11.826Z,69.70
2017-10-23T17:56:23.680Z,67.80
2017-10-23T17:58:01.009Z,68.90
2017-10-23T17:59:39.117Z,69.20
2017-10-23T18:01:15.881Z,69.20
2017-10-23T18:02:54.253Z,65.70
2017-10-23T18:04:31.466Z,65.60
2017-10-23T18:06:10.024Z,64.70
2017-10-23T18:07:48.753Z,64.70
2017-10-23T18:09:27.898Z,66.40
2017-10-23T18:11:05.003Z,66.90
2017-10-23T18:12:43.297Z,68.10
2017-10-23T18:14:21.256Z,70.80
2017-10-23T18:16:01.127Z,70.80
2017-10-23T18:17:38.400Z,71.30
2017-10-23T18:19:16.649Z,71.40
2017-10-23T18:20:57.273Z,72.40
2017-10-23T18:22:35.097Z,73.30
2017-10-23T18:24:12.630Z,72.80
2017-10-23T18:25:49.957Z,72.40
2017-10-23T18:27:27.614Z,73.30
2017-10-23T18:29:06.547Z,74.50
2017-10-23T18:30:45.463Z,75.70
2017-10-23T18:32:23.480Z,75.80
2017-10-23T18:34:03.529Z,74.50
2017-10-23T18:35:44.211Z,73.10
2017-10-23T18:37:24.187Z,70.60
2017-10-23T18:39:03.768Z,73.00
2017-10-23T18:40:44.106Z,73.10
2017-10-23T18:42:21.904Z,73.30
2017-10-23T18:44:00.540Z,74.60
2017-10-23T18:45:39.457Z,74.70
2017-10-23T18:47:18.448Z,74.00
2017-10-23T18:48:59.081Z,73.50
2017-10-23T18:50:38.760Z,73.50
2017-10-23T18:52:17.797Z,74.60
2017-10-23T18:53:56.785Z,75.10
2017-10-23T18:55:36.026Z,76.00
2017-10-23T18:57:19.498Z,76.00
2017-10-23T18:58:59.388Z,76.10
2017-10-23T19:00:39.094Z,76.20
2017-10-23T19:02:17.403Z,76.00
2017-10-23T19:03:56.235Z,74.00
2017-10-23T19:05:35.662Z,74.20
2017-10-23T19:07:15.271Z,74.20
2017-10-23T19:08:55.982Z,72.90
2017-10-23T19:10:34.111Z,72.90
2017-10-23T19:12:14.573Z,70.80
2017-10-23T19:13:53.573Z,70.10
2017-10-23T19:15:32.015Z,68.00
2017-10-23T19:17:11.813Z,67.80
2017-10-23T19:18:50.445Z,68.30
2017-10-23T19:20:34.613Z,69.10
2017-10-23T19:22:14.737Z,69.40
2017-10-23T19:23:55.601Z,68.40
2017-10-23T19:25:34.650Z,69.20
2017-10-23T19:27:15.212Z,67.80
2017-10-23T19:28:53.282Z,67.80
2017-10-23T19:30:32.503Z,70.60
2017-10-23T19:32:11.149Z,72.50
2017-10-23T19:33:49.596Z,74.20
2017-10-23T19:35:28.191Z,75.00
2017-10-23T19:37:06.814Z,75.60
2017-10-23T19:38:45.259Z,75.20
2017-10-23T19:40:25.216Z,74.20
2017-10-23T19:42:03.761Z,73.50
2017-10-23T19:44:32.178Z,72.20
2017-10-23T19:46:11.314Z,71.20
2017-10-23T19:47:50.247Z,68.20
2017-10-23T19:49:31.673Z,68.30
2017-10-23T19:51:10.323Z,69.30
2017-10-23T19:52:50.499Z,70.30
2017-10-23T19:54:39.281Z,70.30
2017-10-23T19:56:27.388Z,70.80
2017-10-23T19:58:09.489Z,70.60
2017-10-23T19:59:54.864Z,70.50
2017-10-23T20:01:37.189Z,71.50
2017-10-23T20:03:15.484Z,69.50
2017-10-23T20:04:53.633Z,66.50
2017-10-23T20:07:05.137Z,65.60
2017-10-23T20:08:53.997Z,65.60
2017-10-23T20:10:39.779Z,65.20
2017-10-23T20:12:20.068Z,65.60
2017-10-23T20:13:59.446Z,65.70
2017-10-23T20:15:40.478Z,65.40
2017-10-23T20:17:34.752Z,65.20
2017-10-23T20:19:22.958Z,64.50
2017-10-23T20:21:07.577Z,65.50
2017-10-23T20:22:47.609Z,64.90
2017-10-23T20:24:24.463Z,64.90
2017-10-23T20:26:01.112Z,65.90
2017-10-23T20:27:39.554Z,66.70
2017-10-23T20:29:18.604Z,66.70
2017-10-23T20:30:55.239Z,65.30
2017-10-23T20:32:32.220Z,65.20
2017-10-23T20:34:09.373Z,65.20
2017-10-23T20:35:47.680Z,66.10
2017-10-23T20:37:24.978Z,66.10
2017-10-23T20:39:01.836Z,66.10
2017-10-23T20:40:41.316Z,69.00
2017-10-23T20:42:18.402Z,69.00
2017-10-23T20:43:55.089Z,70.10
2017-10-23T20:45:33.744Z,71.40
2017-10-23T20:47:11.318Z,71.40
2017-10-23T20:48:48.266Z,70.60
2017-10-23T20:50:25.071Z,68.10
2017-10-23T20:52:02.080Z,68.10
2017-10-23T20:53:40.443Z,67.20
2017-10-23T20:55:17.373Z,66.70
2017-10-23T20:56:54.894Z,65.30
2017-10-23T20:58:31.817Z,65.30
2017-10-23T21:00:08.679Z,65.10
2017-10-23T21:01:46.166Z,66.40
2017-10-23T21:03:23.603Z,66.60
2017-10-23T21:05:00.619Z,66.60
2017-10-23T21:06:37.794Z,67.10
2017-10-23T21:08:15.681Z,67.80
2017-10-23T21:09:52.222Z,67.10
2017-10-23T21:11:31.493Z,67.60
2017-10-23T21:13:08.886Z,67.00
2017-10-23T21:14:46.502Z,67.80
2017-10-23T21:16:24.051Z,68.40
2017-10-23T21:18:01.659Z,66.90
2017-10-23T21:19:39.081Z,66.40
2017-10-23T21:21:16.864Z,66.30
2017-10-23T21:22:54.066Z,66.90
2017-10-23T21:24:30.560Z,66.90
2017-10-23T21:26:07.578Z,66.30
2017-10-23T21:27:44.984Z,66.40
2017-10-23T21:29:21.775Z,67.00
2017-10-23T21:31:01.640Z,68.50
2017-10-23T21:32:38.111Z,68.40
2017-10-23T21:34:14.959Z,68.10
2017-10-23T21:35:51.621Z,68.80
2017-10-23T21:37:28.504Z,67.70
2017-10-23T21:39:06.084Z,67.60
2017-10-23T21:40:43.681Z,68.60
2017-10-23T21:42:21.397Z,69.90
2017-10-23T21:43:58.726Z,68.50
2017-10-23T21:45:36.504Z,69.90
2017-10-23T21:47:14.477Z,70.60
2017-10-23T21:48:50.864Z,71.40
2017-10-23T21:50:27.946Z,72.70
2017-10-23T21:52:04.537Z,72.10
2017-10-23T21:53:42.936Z,70.00
2017-10-23T21:55:20.352Z,68.90
2017-10-23T21:57:03.950Z,69.60
2017-10-23T21:58:40.509Z,69.60
2017-10-23T22:00:19.782Z,69.00
2017-10-23T22:01:57.054Z,68.40
2017-10-23T22:03:33.752Z,67.10
2017-10-23T22:05:10.705Z,67.00
2017-10-23T22:06:48.117Z,66.70
2017-10-23T22:08:25.287Z,66.70
2017-10-23T22:10:02.571Z,67.30
2017-10-23T22:11:39.279Z,67.30
2017-10-23T22:13:20.379Z,67.70
2017-10-23T22:15:01.975Z,67.70
2017-10-23T22:16:43.901Z,67.40
2017-10-23T22:18:21.812Z,67.50
2017-10-23T22:19:58.896Z,67.50
2017-10-23T22:21:35.654Z,67.80
2017-10-23T22:23:13.392Z,68.50
2017-10-23T22:24:50.839Z,71.60
2017-10-23T22:26:27.679Z,71.60
2017-10-23T22:28:04.217Z,73.60
2017-10-23T22:29:40.741Z,72.70
2017-10-23T22:31:18.097Z,70.60
2017-10-23T22:32:55.076Z,69.60
2017-10-23T22:34:31.573Z,69.40
2017-10-23T22:36:08.334Z,69.50
2017-10-23T22:37:44.831Z,69.50
2017-10-23T22:39:22.597Z,71.40
2017-10-23T22:40:59.551Z,70.60
2017-10-23T22:42:39.009Z,71.90
2017-10-23T22:44:17.827Z,72.10
2017-10-23T22:45:59.655Z,72.00
2017-10-23T22:47:48.595Z,72.20
2017-10-23T22:49:33.096Z,74.00
2017-10-23T22:51:10.268Z,76.20
2017-10-23T22:52:49.677Z,75.80
2017-10-23T22:54:26.453Z,78.10
2017-10-23T22:56:12.728Z,76.30
2017-10-23T22:57:52.585Z,75.40
2017-10-23T22:59:31.395Z,74.30
2017-10-23T23:01:11.978Z,74.10
2017-10-23T23:02:51.780Z,74.40
2017-10-23T23:04:32.956Z,75.30
2017-10-23T23:06:13.044Z,75.70
2017-10-23T23:07:49.540Z,76.20
2017-10-23T23:09:26.490Z,77.40
2017-10-23T23:11:02.969Z,80.80
2017-10-23T23:12:41.110Z,79.20
2017-10-23T23:14:19.380Z,78.40
2017-10-23T23:15:56.809Z,78.40
2017-10-23T23:17:34.479Z,78.40
2017-10-23T23:19:12.043Z,78.50
2017-10-23T23:20:50.769Z,78.80
2017-10-23T23:22:27.739Z,78.80
2017-10-23T23:24:04.845Z,78.40
2017-10-23T23:25:42.266Z,78.60
2017-10-23T23:27:18.815Z,79.10
2017-10-23T23:28:56.138Z,82.10
2017-10-23T23:30:35.112Z,84.10
2017-10-23T23:32:11.470Z,84.20
2017-10-23T23:33:48.853Z,85.30
2017-10-23T23:35:27.671Z,85.30
2017-10-23T23:37:04.347Z,83.60
2017-10-23T23:38:40.772Z,83.10
2017-10-23T23:40:17.196Z,82.90
2017-10-23T23:41:54.005Z,83.10
2017-10-23T23:43:30.471Z,84.80
2017-10-23T23:45:08.141Z,86.00
2017-10-23T23:46:45.016Z,85.80
2017-10-23T23:48:21.457Z,83.80
2017-10-23T23:49:58.845Z,84.30
2017-10-23T23:51:35.687Z,84.20
2017-10-23T23:53:12.034Z,81.20
2017-10-23T23:54:48.734Z,79.90
2017-10-23T23:56:26.484Z,80.10
2017-10-23T23:58:02.995Z,80.10
2017-10-23T23:59:39.629Z,83.00
